Time;durP1;ratioP1;P1;durP2;ratioP2;P2;SDS_P1;SDS_P2;PMS_P1;PMS_P2;Temp;Humidity;BMP_temperature;BMP_pressure;BME280_temperature;BME280_humidity;BME280_pressure;Samples;Min_cycle;Max_cycle;Signal;HPM_P1;HPM_P2
2023/06/09 00:02:24;;;;;;;;;;;16.20;53.60;;;12.19;100.00;95139.44;5010836;28;19937;-48
2023/06/09 00:04:50;;;;;;;;;;;16.20;53.70;;;12.18;100.00;95135.97;5011361;28;19916;-46
2023/06/09 00:07:16;;;;;;;;;;;16.20;53.80;;;12.17;100.00;95137.06;5007227;28;19913;-49
2023/06/09 00:09:45;;;;;;;;;;;16.20;53.80;;;12.14;100.00;95136.84;5014011;28;19955;-46
2023/06/09 00:12:13;;;;;;;;;;;16.20;53.90;;;12.09;100.00;95132.34;5009883;28;20241;-48
2023/06/09 00:14:40;;;;;;;;;;;16.10;53.90;;;12.06;100.00;95135.59;5010998;28;19909;-47
2023/06/09 00:17:08;;;;;;;;;;;16.10;54.00;;;12.04;100.00;95137.75;5010483;28;19962;-48
2023/06/09 00:19:36;;;;;;;;;;;16.10;54.00;;;12.01;100.00;95136.44;5010734;28;20012;-46
2023/06/09 00:22:02;;;;;;;;;;;16.10;54.10;;;12.02;100.00;95127.34;5011946;28;19909;-47
2023/06/09 00:24:29;;;;;;;;;;;16.10;54.80;;;12.02;100.00;95131.91;5010182;28;19917;-48
2023/06/09 00:26:54;;;;;;;;;;;16.00;54.20;;;11.98;100.00;95125.56;5009738;28;19916;-46
2023/06/09 00:29:24;;;;;;;;;;;16.10;54.30;;;11.99;100.00;95125.25;5011577;28;19909;-46
2023/06/09 00:31:49;;;;;;;;;;;16.00;54.30;;;11.94;100.00;95120.00;5010668;28;20000;-46
2023/06/09 00:34:15;;;;;;;;;;;16.00;54.30;;;11.93;100.00;95125.59;5009343;28;20027;-49
2023/06/09 00:36:41;;;;;;;;;;;16.00;54.40;;;11.91;100.00;95128.56;5010163;28;20370;-51
2023/06/09 00:39:09;;;;;;;;;;;16.00;54.50;;;11.89;100.00;95128.03;5011149;28;19917;-50
2023/06/09 00:41:39;;;;;;;;;;;15.90;54.50;;;11.89;100.00;95127.25;5011158;28;19963;-47
2023/06/09 00:44:06;;;;;;;;;;;16.00;54.60;;;11.87;100.00;95129.41;5010585;28;19949;-50
2023/06/09 00:46:34;;;;;;;;;;;15.90;54.60;;;11.79;100.00;95123.56;5010990;28;20008;-47
2023/06/09 00:49:01;;;;;;;;;;;15.90;54.70;;;11.78;100.00;95127.34;5009146;28;20378;-48
2023/06/09 00:51:27;;;;;;;;;;;15.90;54.70;;;11.75;100.00;95124.41;5011240;28;20330;-49
2023/06/09 00:53:53;;;;;;;;;;;15.90;54.80;;;11.69;100.00;95131.69;5010351;28;19919;-48
2023/06/09 00:56:23;;;;;;;;;;;15.80;54.80;;;11.64;100.00;95126.41;5009423;28;20353;-49
2023/06/09 00:58:50;;;;;;;;;;;15.80;54.80;;;11.61;100.00;95131.50;5011282;28;19913;-47
2023/06/09 01:01:15;;;;;;;;;;;15.70;54.90;;;11.59;100.00;95121.09;5009305;28;20387;-46
2023/06/09 01:03:41;;;;;;;;;;;15.70;54.90;;;11.56;100.00;95130.47;5011101;28;19948;-50
2023/06/09 01:06:45;;;;;;;;;;;15.70;55.00;;;11.51;100.00;95127.06;5009850;28;19909;-47
2023/06/09 01:09:35;;;;;;;;;;;15.70;55.10;;;11.46;100.00;95125.22;5010045;28;19916;-47
2023/06/09 01:12:22;;;;;;;;;;;15.60;55.10;;;11.42;100.00;95126.06;5008968;28;19952;-47
2023/06/09 01:15:11;;;;;;;;;;;15.60;55.20;;;11.39;100.00;95124.75;5009353;28;19913;-49
2023/06/09 01:17:39;;;;;;;;;;;15.50;55.20;;;11.39;100.00;95124.75;5011154;28;19921;-47
2023/06/09 01:20:07;;;;;;;;;;;15.50;55.40;;;11.35;100.00;95121.88;5009204;28;20007;-47
2023/06/09 01:22:45;;;;;;;;;;;15.50;55.50;;;11.34;100.00;95122.94;5009958;28;19913;-47
2023/06/09 01:25:34;;;;;;;;;;;15.50;55.50;;;11.29;100.00;95122.19;5021046;28;19918;-48
2023/06/09 01:28:16;;;;;;;;;;;15.50;55.60;;;11.31;100.00;95120.03;5013472;28;19909;-46
2023/06/09 01:30:46;;;;;;;;;;;15.40;55.60;;;11.30;100.00;95126.44;5007146;28;19921;-47
2023/06/09 01:33:18;;;;;;;;;;;15.40;55.70;;;11.25;100.00;95124.63;5014347;28;19916;-51
2023/06/09 01:35:46;;;;;;;;;;;15.40;56.30;;;11.23;100.00;95120.63;5012400;28;19909;-50
2023/06/09 01:38:14;;;;;;;;;;;15.40;55.70;;;11.21;100.00;95120.13;5005130;28;19913;-46
2023/06/09 01:40:42;;;;;;;;;;;15.40;55.80;;;11.19;100.00;95128.41;5014526;28;20261;-46
2023/06/09 01:43:07;;;;;;;;;;;15.40;55.90;;;11.13;100.00;95126.06;5013454;28;19909;-47
2023/06/09 01:45:33;;;;;;;;;;;15.30;55.80;;;11.11;100.00;95129.78;5013760;28;20296;-51
2023/06/09 01:48:34;;;;;;;;;;;15.30;55.90;;;11.10;100.00;95128.19;5013156;28;19909;-51
2023/06/09 01:51:15;;;;;;;;;;;15.30;56.00;;;11.10;100.00;95130.88;5002784;28;19921;-46
2023/06/09 01:53:53;;;;;;;;;;;15.20;56.00;;;11.04;100.00;95121.31;5012985;28;19955;-51
2023/06/09 01:56:35;;;;;;;;;;;15.20;56.10;;;11.02;100.00;95120.00;5013569;28;20402;-47
2023/06/09 01:59:08;;;;;;;;;;;15.20;56.10;;;11.01;100.00;95113.09;5014078;28;19963;-48
2023/06/09 02:01:38;;;;;;;;;;;15.20;56.20;;;10.98;100.00;95114.44;5011639;28;19913;-47
2023/06/09 02:04:08;;;;;;;;;;;15.20;56.90;;;10.94;100.00;95118.72;5012808;28;19947;-47
2023/06/09 02:06:35;;;;;;;;;;;15.10;56.20;;;10.93;100.00;95106.47;5010291;28;20359;-46
2023/06/09 02:09:01;;;;;;;;;;;15.10;56.30;;;10.92;100.00;95109.41;5004425;28;20417;-49
2023/06/09 02:11:27;;;;;;;;;;;15.10;56.30;;;10.92;100.00;95112.09;5001482;28;19909;-52
2023/06/09 02:13:55;;;;;;;;;;;15.10;56.40;;;10.87;100.00;95104.91;5004914;28;19909;-47
2023/06/09 02:16:22;;;;;;;;;;;15.10;56.50;;;10.85;100.00;95104.41;5001862;28;19909;-46
2023/06/09 02:18:49;;;;;;;;;;;15.00;56.50;;;10.84;100.00;95106.28;5002101;28;19963;-49
2023/06/09 02:21:15;;;;;;;;;;;15.00;56.50;;;10.83;100.00;95104.66;5002660;28;19917;-46
2023/06/09 02:23:41;;;;;;;;;;;15.00;56.50;;;10.82;100.00;95105.75;4999591;28;19913;-47
2023/06/09 02:26:07;;;;;;;;;;;15.00;56.60;;;10.82;100.00;95105.75;5004349;28;19940;-52
2023/06/09 02:28:33;;;;;;;;;;;15.00;56.60;;;10.89;100.00;95102.78;5002877;28;19913;-46
2023/06/09 02:31:00;;;;;;;;;;;15.00;56.70;;;10.92;100.00;95098.75;5004191;28;19909;-47
2023/06/09 02:33:26;;;;;;;;;;;15.00;56.90;;;10.91;100.00;95105.97;5002925;28;20368;-49
2023/06/09 02:35:53;;;;;;;;;;;15.00;56.90;;;10.89;100.00;95108.88;5015679;28;19917;-48
2023/06/09 02:38:21;;;;;;;;;;;15.00;56.90;;;10.89;100.00;95100.09;5000507;28;19917;-49
2023/06/09 02:40:49;;;;;;;;;;;15.00;57.00;;;10.92;100.00;95104.88;5004209;28;19952;-46
2023/06/09 02:43:15;;;;;;;;;;;15.00;57.00;;;10.94;100.00;95100.06;5003741;28;19959;-49
2023/06/09 02:45:41;;;;;;;;;;;15.00;57.10;;;10.99;100.00;95104.56;5003355;28;19999;-46
2023/06/09 02:48:07;;;;;;;;;;;15.00;57.20;;;11.03;100.00;95097.59;5002531;28;19909;-46
2023/06/09 02:50:33;;;;;;;;;;;15.10;57.30;;;11.01;100.00;95097.88;5004710;28;19909;-46
2023/06/09 02:52:59;;;;;;;;;;;15.10;57.30;;;10.98;100.00;95100.31;5003724;28;20161;-49
2023/06/09 02:55:24;;;;;;;;;;;15.10;57.30;;;10.95;100.00;95104.31;5002819;28;20004;-47
2023/06/09 02:57:50;;;;;;;;;;;15.10;57.30;;;10.95;100.00;95103.53;5003598;28;19913;-46
2023/06/09 03:00:17;;;;;;;;;;;15.10;57.30;;;10.92;100.00;95112.09;5005123;28;19920;-48
2023/06/09 03:02:43;;;;;;;;;;;15.10;57.40;;;10.93;100.00;95116.31;5001487;28;19916;-48
2023/06/09 03:05:10;;;;;;;;;;;15.10;57.40;;;10.93;100.00;95106.47;5000811;28;19913;-46
2023/06/09 03:07:36;;;;;;;;;;;15.00;57.40;;;10.93;100.00;95108.34;5004465;28;19932;-50
2023/06/09 03:10:06;;;;;;;;;;;15.00;57.40;;;10.89;100.00;95100.91;5003285;28;19999;-48
2023/06/09 03:12:32;;;;;;;;;;;15.10;57.40;;;10.85;100.00;95110.53;5004608;28;19909;-46
2023/06/09 03:14:57;;;;;;;;;;;15.00;57.40;;;10.85;100.00;95110.53;4999903;28;19971;-46
2023/06/09 03:17:25;;;;;;;;;;;15.00;57.40;;;10.80;100.00;95105.22;4999756;28;19913;-47
2023/06/09 03:19:51;;;;;;;;;;;15.00;57.50;;;10.78;100.00;95102.06;5002072;28;19956;-49
2023/06/09 03:22:17;;;;;;;;;;;15.00;57.50;;;10.77;100.00;95108.44;5001894;28;19915;-46
2023/06/09 03:24:44;;;;;;;;;;;15.00;57.60;;;10.75;100.00;95107.94;5001970;28;20315;-46
2023/06/09 03:27:10;;;;;;;;;;;15.00;57.60;;;10.77;100.00;95116.44;5001604;28;19909;-46
2023/06/09 03:29:36;;;;;;;;;;;15.00;57.60;;;10.78;100.00;95112.72;5001631;28;19993;-45
2023/06/09 03:32:02;;;;;;;;;;;15.00;57.70;;;10.79;100.00;95113.50;5001365;28;19968;-48
2023/06/09 03:34:29;;;;;;;;;;;14.90;57.70;;;10.79;100.00;95114.28;5003796;28;19912;-46
2023/06/09 03:36:55;;;;;;;;;;;14.90;57.80;;;10.79;100.00;95110.84;4999488;28;19909;-48
2023/06/09 03:39:21;;;;;;;;;;;14.90;57.80;;;10.78;100.00;95107.38;5003403;28;20349;-46
2023/06/09 03:41:47;;;;;;;;;;;15.00;58.00;;;10.82;100.00;95116.41;5002080;28;19936;-49
2023/06/09 03:44:13;;;;;;;;;;;15.00;58.00;;;10.83;100.00;95107.34;5001225;28;19936;-51
2023/06/09 03:46:39;;;;;;;;;;;15.00;58.00;;;10.86;100.00;95117.44;4999353;28;20328;-48
2023/06/09 03:49:05;;;;;;;;;;;15.00;58.00;;;10.87;100.00;95116.38;5000163;28;19913;-46
2023/06/09 03:51:30;;;;;;;;;;;15.00;58.10;;;10.89;100.00;95116.09;4997544;28;19923;-49
2023/06/09 03:53:56;;;;;;;;;;;15.10;58.10;;;10.89;100.00;95126.75;5004128;28;19924;-45
2023/06/09 03:56:22;;;;;;;;;;;15.10;58.10;;;10.93;100.00;95124.31;5001350;28;19932;-49
2023/06/09 03:58:48;;;;;;;;;;;15.10;58.10;;;10.94;100.00;95124.06;5000688;28;19913;-48
2023/06/09 04:01:17;;;;;;;;;;;15.10;58.10;;;10.93;100.00;95125.13;5014255;28;19916;-46
2023/06/09 04:03:43;;;;;;;;;;;15.20;58.10;;;10.87;100.00;95120.88;5003535;28;20331;-47
2023/06/09 04:06:09;;;;;;;;;;;15.20;58.10;;;10.92;100.00;95115.53;5000316;28;19909;-49
2023/06/09 04:08:35;;;;;;;;;;;15.20;58.10;;;10.94;100.00;95121.41;4995725;28;20364;-47
2023/06/09 04:11:00;;;;;;;;;;;15.20;58.10;;;10.94;100.00;95117.94;5001149;28;20117;-46
2023/06/09 04:13:26;;;;;;;;;;;15.20;58.00;;;11.04;100.00;95123.97;5002909;28;19935;-51
2023/06/09 04:15:52;;;;;;;;;;;15.30;58.10;;;11.20;100.00;95124.66;5001288;28;20679;-48
2023/06/09 04:18:19;;;;;;;;;;;15.30;58.20;;;11.39;100.00;95119.44;4998085;28;19921;-48
2023/06/09 04:20:44;;;;;;;;;;;15.40;58.20;;;11.55;100.00;95128.09;5001301;28;20371;-47
2023/06/09 04:23:10;;;;;;;;;;;15.50;58.30;;;11.73;100.00;95129.25;5002957;28;19956;-47
2023/06/09 04:25:36;;;;;;;;;;;15.60;58.30;;;11.89;100.00;95127.25;4995750;28;19947;-48
2023/06/09 04:28:03;;;;;;;;;;;15.70;58.30;;;12.04;100.00;95127.09;5004173;28;19963;-47
2023/06/09 04:30:30;;;;;;;;;;;15.80;58.30;;;12.23;100.00;95127.13;5003921;28;19909;-48
2023/06/09 04:33:04;;;;;;;;;;;16.00;58.20;;;12.44;100.00;95127.66;5018247;28;19913;-47
2023/06/09 04:35:31;;;;;;;;;;;16.10;58.20;;;12.65;100.00;95133.53;5000310;28;20360;-49
2023/06/09 04:38:00;;;;;;;;;;;16.30;58.10;;;12.72;100.00;95137.44;5000227;28;19966;-45
2023/06/09 04:40:28;;;;;;;;;;;16.50;58.10;;;12.87;100.00;95133.75;4999410;28;19909;-48
2023/06/09 04:42:57;;;;;;;;;;;16.70;58.00;;;13.10;100.00;95125.91;4998387;28;19935;-47
2023/06/09 04:45:34;;;;;;;;;;;16.90;58.00;;;13.34;100.00;95131.19;5000534;28;19966;-48
2023/06/09 04:48:01;;;;;;;;;;;17.00;57.80;;;13.58;100.00;95141.78;4999765;28;19909;-46
2023/06/09 04:50:32;;;;;;;;;;;17.20;57.70;;;13.79;100.00;95140.34;4999371;28;19909;-49
2023/06/09 04:53:03;;;;;;;;;;;17.40;57.60;;;14.00;100.00;95135.38;5000616;28;20016;-47
2023/06/09 04:55:30;;;;;;;;;;;17.70;57.60;;;14.18;100.00;95139.06;5004045;28;20273;-46
2023/06/09 04:57:57;;;;;;;;;;;17.90;57.50;;;14.28;100.00;95138.88;4998500;28;19917;-50
2023/06/09 05:00:27;;;;;;;;;;;18.10;57.40;;;14.50;100.00;95138.16;5002410;28;19982;-47
2023/06/09 05:02:54;;;;;;;;;;;18.30;57.30;;;14.72;100.00;95142.81;5003344;28;20007;-47
2023/06/09 05:05:21;;;;;;;;;;;18.50;57.20;;;15.01;100.00;95141.66;5007356;28;19919;-49
2023/06/09 05:07:46;;;;;;;;;;;18.70;57.00;;;15.27;100.00;95142.66;5005514;28;19917;-47
2023/06/09 05:10:12;;;;;;;;;;;18.90;56.90;;;15.37;98.69;95146.19;5005426;28;19931;-49
2023/06/09 05:12:39;;;;;;;;;;;19.20;56.80;;;15.52;96.84;95137.00;5003256;28;20330;-48
2023/06/09 05:15:06;;;;;;;;;;;19.40;56.60;;;15.70;94.55;95130.66;5005557;28;19916;-46
2023/06/09 05:17:34;;;;;;;;;;;19.60;56.40;;;15.94;92.96;95139.13;5005265;28;20022;-45
2023/06/09 05:20:01;;;;;;;;;;;19.80;56.20;;;16.12;90.88;95139.22;5005439;28;19917;-47
2023/06/09 05:22:26;;;;;;;;;;;20.00;56.00;;;16.27;90.07;95133.44;5002220;28;19909;-48
2023/06/09 05:24:53;;;;;;;;;;;20.20;55.80;;;16.53;90.81;95132.72;5004084;28;19948;-49
2023/06/09 05:27:18;;;;;;;;;;;20.50;55.70;;;16.80;89.09;95142.44;5007322;28;19909;-47
2023/06/09 05:29:44;;;;;;;;;;;20.70;55.60;;;17.02;87.15;95145.00;5016420;28;20356;-48
2023/06/09 05:32:10;;;;;;;;;;;20.90;55.40;;;17.20;84.18;95145.00;5004027;28;20007;-45
2023/06/09 05:34:36;;;;;;;;;;;21.20;55.20;;;17.32;83.18;95145.16;5004574;28;20276;-44
2023/06/09 05:37:04;;;;;;;;;;;21.50;55.00;;;17.32;81.87;95151.31;5005359;28;20151;-47
2023/06/09 05:39:30;;;;;;;;;;;21.70;54.60;;;17.46;82.23;95142.31;5018116;28;19944;-45
2023/06/09 05:41:56;;;;;;;;;;;21.90;54.30;;;17.63;80.72;95141.47;5000325;28;19909;-44
2023/06/09 05:44:22;;;;;;;;;;;22.20;54.00;;;17.82;80.03;95131.16;5005785;28;19916;-45
2023/06/09 05:46:48;;;;;;;;;;;22.40;53.80;;;18.03;79.14;95136.66;5004620;28;20395;-45
2023/06/09 05:49:13;;;;;;;;;;;22.70;53.60;;;18.27;77.66;95142.28;5004385;28;19916;-45
2023/06/09 05:51:39;;;;;;;;;;;22.90;53.20;;;18.44;76.71;95149.47;5003438;28;19912;-49
2023/06/09 05:54:06;;;;;;;;;;;23.30;53.00;;;18.62;75.20;95147.50;5005533;28;19952;-48
2023/06/09 05:56:32;;;;;;;;;;;23.50;52.70;;;18.80;74.98;95142.78;5005063;28;20283;-45
2023/06/09 05:59:07;;;;;;;;;;;23.80;52.40;;;18.93;73.72;95141.78;5015590;28;19999;-45
2023/06/09 06:01:34;;;;;;;;;;;24.10;52.00;;;19.22;73.81;95140.13;5002183;28;19917;-46
2023/06/09 06:03:59;;;;;;;;;;;24.30;51.60;;;19.42;72.23;95143.94;5004765;28;19963;-48
2023/06/09 06:06:25;;;;;;;;;;;24.60;51.40;;;19.56;71.81;95138.25;5005014;28;19913;-45
2023/06/09 06:08:51;;;;;;;;;;;24.80;51.00;;;19.75;68.32;95143.97;5004069;28;19943;-47
2023/06/09 06:11:17;;;;;;;;;;;25.00;50.60;;;19.85;66.80;95148.94;5002727;28;20018;-47
2023/06/09 06:13:43;;;;;;;;;;;25.20;50.20;;;19.90;68.43;95152.56;5003788;28;19917;-49
2023/06/09 06:16:09;;;;;;;;;;;25.30;49.90;;;20.02;66.74;95150.66;5003729;28;19909;-46
2023/06/09 06:18:36;;;;;;;;;;;25.40;49.60;;;20.22;66.33;95151.75;5003511;28;29199;-46
2023/06/09 06:21:02;;;;;;;;;;;25.50;49.30;;;20.32;66.10;95151.28;5003934;28;19959;-47
2023/06/09 06:23:28;;;;;;;;;;;25.60;48.90;;;20.48;65.63;95148.69;5005932;28;19909;-45
2023/06/09 06:25:54;;;;;;;;;;;25.70;48.80;;;20.49;64.18;95149.50;5005293;28;19916;-45
2023/06/09 06:28:21;;;;;;;;;;;25.80;48.40;;;20.59;64.71;95153.69;5005431;28;19913;-49
2023/06/09 06:30:47;;;;;;;;;;;25.90;48.30;;;20.44;63.65;95149.72;5003679;28;20393;-46
2023/06/09 06:33:13;;;;;;;;;;;26.00;47.90;;;20.15;62.46;95156.09;5005683;28;19916;-46
2023/06/09 06:35:39;;;;;;;;;;;26.10;47.60;;;20.17;63.72;95143.84;5001632;28;19932;-45
2023/06/09 06:38:05;;;;;;;;;;;26.10;47.20;;;20.34;64.38;95150.97;5005410;28;20359;-47
2023/06/09 06:40:31;;;;;;;;;;;26.10;47.10;;;20.34;63.89;95154.47;5004843;28;19908;-44
2023/06/09 06:42:57;;;;;;;;;;;26.20;46.80;;;20.52;62.79;95152.34;5004182;28;19979;-45
2023/06/09 06:45:22;;;;;;;;;;;26.30;46.80;;;20.67;62.41;95153.56;5001420;28;19920;-46
2023/06/09 06:47:49;;;;;;;;;;;26.40;46.70;;;20.66;61.82;95152.00;5004614;28;20159;-48
2023/06/09 06:50:15;;;;;;;;;;;26.50;46.40;;;20.62;61.51;95153.00;5003055;28;19957;-47
2023/06/09 06:52:41;;;;;;;;;;;26.60;46.20;;;20.71;61.78;95162.59;5002343;28;20022;-50
2023/06/09 06:55:08;;;;;;;;;;;26.60;45.90;;;20.79;61.51;95160.91;5002369;28;19931;-45
2023/06/09 06:57:38;;;;;;;;;;;26.70;45.70;;;20.83;62.41;95174.53;5004205;28;19931;-49
2023/06/09 07:00:10;;;;;;;;;;;26.80;45.60;;;20.90;61.49;95170.16;5002306;28;19932;-49
2023/06/09 07:02:36;;;;;;;;;;;26.90;45.50;;;20.95;59.72;95167.19;4998091;28;19919;-50
2023/06/09 07:05:03;;;;;;;;;;;27.00;45.20;;;21.17;59.34;95175.97;5003642;28;19909;-45
2023/06/09 07:07:29;;;;;;;;;;;27.00;45.00;;;21.36;59.09;95178.88;5003057;28;19920;-47
2023/06/09 07:09:54;;;;;;;;;;;27.10;44.80;;;21.39;58.69;95175.47;5004917;28;19909;-47
2023/06/09 07:12:21;;;;;;;;;;;27.30;44.80;;;21.46;58.63;95177.59;5002404;28;19909;-45
2023/06/09 07:14:47;;;;;;;;;;;27.50;44.60;;;21.62;58.59;95177.66;5004755;28;20319;-45
2023/06/09 07:17:13;;;;;;;;;;;27.60;44.40;;;21.81;55.81;95171.59;5005029;28;19920;-50
2023/06/09 07:19:39;;;;;;;;;;;27.80;44.30;;;22.13;55.89;95183.31;5002743;28;19913;-45
2023/06/09 07:22:04;;;;;;;;;;;27.90;44.00;;;22.15;54.22;95173.66;5002497;28;19913;-45
2023/06/09 07:24:30;;;;;;;;;;;28.10;43.80;;;22.04;54.14;95169.13;4998805;28;19987;-45
2023/06/09 07:26:56;;;;;;;;;;;28.30;43.40;;;22.18;54.51;95174.94;5000903;28;19910;-47
2023/06/09 07:29:22;;;;;;;;;;;28.40;43.20;;;22.46;53.34;95177.56;4998788;28;20014;-50
2023/06/09 07:31:47;;;;;;;;;;;28.50;42.90;;;22.54;53.30;95168.47;5000614;28;19913;-46
2023/06/09 07:34:14;;;;;;;;;;;28.70;42.70;;;22.07;54.10;95174.63;4995124;28;19924;-51
2023/06/09 07:36:40;;;;;;;;;;;28.80;42.40;;;21.80;56.55;95172.75;5001366;28;20292;-49
2023/06/09 07:39:06;;;;;;;;;;;28.80;42.00;;;22.31;54.41;95173.75;4998105;28;19982;-51
2023/06/09 07:41:32;;;;;;;;;;;28.90;42.60;;;22.73;54.43;95170.47;5003970;28;19924;-46
2023/06/09 07:43:59;;;;;;;;;;;29.00;41.80;;;22.57;52.31;95175.94;5006036;28;19924;-50
2023/06/09 07:46:25;;;;;;;;;;;29.20;41.70;;;22.52;54.07;95175.41;5000406;28;20318;-48
2023/06/09 07:48:51;;;;;;;;;;;29.20;41.40;;;22.43;54.47;95178.28;5002230;28;19917;-47
2023/06/09 07:51:18;;;;;;;;;;;29.40;41.30;;;22.88;53.86;95168.91;5004281;28;19909;-47
2023/06/09 07:53:45;;;;;;;;;;;29.40;41.10;;;23.46;53.00;95182.59;5002153;28;19935;-51
2023/06/09 07:56:11;;;;;;;;;;;29.60;41.20;;;23.49;52.00;95172.94;5002522;28;19909;-49
2023/06/09 07:58:37;;;;;;;;;;;29.70;40.90;;;23.27;52.17;95167.06;4998078;28;19920;-48
2023/06/09 08:01:03;;;;;;;;;;;29.80;41.30;;;23.58;52.47;95170.81;5002200;28;19920;-48
2023/06/09 08:03:29;;;;;;;;;;;29.90;40.40;;;23.92;50.93;95171.91;5001976;28;19948;-48
2023/06/09 08:05:55;;;;;;;;;;;30.10;40.40;;;24.15;50.36;95169.19;4998783;28;19998;-46
2023/06/09 08:08:21;;;;;;;;;;;30.20;40.10;;;24.54;48.99;95168.31;5001551;28;19940;-45
2023/06/09 08:10:47;;;;;;;;;;;30.50;40.20;;;24.72;49.04;95169.41;5003603;28;19996;-46
2023/06/09 08:13:15;;;;;;;;;;;30.70;40.00;;;24.79;47.78;95158.63;4999802;28;20438;-51
2023/06/09 08:15:41;;;;;;;;;;;30.90;39.70;;;24.88;48.07;95163.78;5002935;28;19916;-53
2023/06/09 08:18:07;;;;;;;;;;;31.00;39.30;;;24.88;46.83;95163.78;5003053;28;19963;-50
2023/06/09 08:20:33;;;;;;;;;;;31.20;39.00;;;24.90;47.83;95167.72;4998202;28;20411;-52
2023/06/09 08:22:58;;;;;;;;;;;31.30;38.80;;;25.02;47.79;95169.47;5002622;28;19927;-50
2023/06/09 08:25:24;;;;;;;;;;;31.40;38.70;;;24.88;47.71;95170.06;5001460;28;19917;-51
2023/06/09 08:27:50;;;;;;;;;;;31.60;38.40;;;25.18;46.85;95168.56;5002367;28;19999;-48
2023/06/09 08:30:16;;;;;;;;;;;31.70;38.20;;;25.34;46.28;95156.31;4999638;28;20300;-49
2023/06/09 08:32:42;;;;;;;;;;;31.80;38.10;;;24.32;48.13;95153.53;5000440;28;19909;-46
2023/06/09 08:35:09;;;;;;;;;;;31.90;37.80;;;24.64;48.10;95148.66;5001258;28;19910;-48
2023/06/09 08:37:36;;;;;;;;;;;31.90;37.60;;;24.86;48.47;95150.56;5000688;28;19917;-51
2023/06/09 08:40:05;;;;;;;;;;;31.90;37.40;;;24.74;48.80;95145.31;5002687;28;20372;-53
2023/06/09 08:42:32;;;;;;;;;;;31.90;37.20;;;25.00;48.81;95147.25;5004285;28;19909;-53
2023/06/09 08:45:06;;;;;;;;;;;32.00;37.10;;;24.97;49.00;95145.25;4997956;28;19916;-49
2023/06/09 08:47:33;;;;;;;;;;;32.00;36.90;;;25.34;47.17;95145.41;5000538;28;20256;-47
2023/06/09 08:50:02;;;;;;;;;;;32.00;37.20;;;25.83;46.25;95140.97;4999958;28;19948;-49
2023/06/09 08:52:30;;;;;;;;;;;32.20;36.90;;;25.93;45.55;95134.81;5000746;28;19909;-47
2023/06/09 08:54:59;;;;;;;;;;;32.30;36.70;;;25.92;45.21;95136.00;4996941;28;20016;-50
2023/06/09 08:57:25;;;;;;;;;;;32.50;36.60;;;26.14;45.05;95133.50;5000409;28;19912;-48
2023/06/09 08:59:53;;;;;;;;;;;32.50;36.20;;;26.13;44.81;95138.13;5000487;28;19950;-49
2023/06/09 09:02:19;;;;;;;;;;;32.70;36.10;;;26.28;45.04;95134.38;5001629;28;19920;-51
2023/06/09 09:04:45;;;;;;;;;;;32.80;35.90;;;26.48;44.45;95125.97;5001666;28;20253;-49
2023/06/09 09:07:12;;;;;;;;;;;32.90;35.80;;;26.64;43.71;95129.25;5001894;28;19909;-46
2023/06/09 09:09:41;;;;;;;;;;;33.00;35.60;;;26.69;41.90;95126.16;4999976;28;20384;-48
2023/06/09 09:12:12;;;;;;;;;;;33.10;35.40;;;26.61;43.12;95126.50;5014376;28;19913;-51
2023/06/09 09:14:43;;;;;;;;;;;33.20;35.80;;;26.57;42.32;95122.94;5015023;28;20501;-52
2023/06/09 09:17:12;;;;;;;;;;;33.30;35.00;;;26.95;43.88;95122.47;4998643;28;20273;-47
2023/06/09 09:19:42;;;;;;;;;;;33.40;35.00;;;26.09;43.26;95126.41;5001824;28;20264;-48
2023/06/09 09:22:09;;;;;;;;;;;33.50;34.80;;;25.77;44.54;95121.38;4998559;28;19916;-50
2023/06/09 09:24:35;;;;;;;;;;;33.50;34.50;;;26.22;44.28;95116.00;4995648;28;20022;-50
2023/06/09 09:27:14;;;;;;;;;;;33.50;34.40;;;26.50;44.06;95113.53;4993219;28;19931;-53
2023/06/09 09:29:41;;;;;;;;;;;33.50;34.20;;;26.64;43.75;95114.84;4999845;28;19955;-49
2023/06/09 09:32:08;;;;;;;;;;;33.60;34.30;;;27.04;42.64;95113.13;5000475;28;19916;-49
2023/06/09 09:34:33;;;;;;;;;;;33.70;34.30;;;26.78;42.70;95106.72;4999301;28;19960;-49
2023/06/09 09:37:00;;;;;;;;;;;33.70;34.00;;;27.27;42.79;95105.47;5000741;28;19909;-52
2023/06/09 09:39:26;;;;;;;;;;;33.80;33.90;;;27.48;42.12;95117.66;5000795;28;20372;-48
2023/06/09 09:42:10;;;;;;;;;;;33.90;33.80;;;27.16;42.15;95112.81;5001390;28;19925;-52
2023/06/09 09:44:41;;;;;;;;;;;34.00;33.70;;;26.90;43.24;95102.91;4996672;28;19920;-48
2023/06/09 09:47:12;;;;;;;;;;;34.10;33.50;;;27.00;42.92;95097.47;4999285;28;20540;-50
2023/06/09 09:49:55;;;;;;;;;;;34.10;33.30;;;27.45;41.09;95097.34;5003310;28;20665;-50
2023/06/09 09:52:36;;;;;;;;;;;34.20;33.20;;;27.44;41.67;95087.56;5002400;28;19944;-50
2023/06/09 09:55:08;;;;;;;;;;;34.20;33.10;;;27.58;40.83;95082.16;4998953;28;20504;-49
2023/06/09 09:57:36;;;;;;;;;;;34.30;33.00;;;27.83;40.77;95085.00;5003431;28;19909;-48
2023/06/09 10:00:11;;;;;;;;;;;34.40;32.90;;;27.80;40.70;95083.03;5004473;28;19909;-50
2023/06/09 10:02:45;;;;;;;;;;;34.50;32.80;;;28.20;39.82;95083.06;5003636;28;19916;-50
2023/06/09 10:05:14;;;;;;;;;;;34.60;32.60;;;27.89;40.21;95079.91;5005727;28;19926;-52
2023/06/09 10:07:45;;;;;;;;;;;34.80;32.60;;;27.79;39.55;95077.94;5002279;28;20350;-52
2023/06/09 10:10:11;;;;;;;;;;;34.80;32.30;;;27.85;39.80;95085.38;5003942;28;20039;-48
2023/06/09 10:12:38;;;;;;;;;;;34.90;32.10;;;28.04;39.96;95078.75;5003905;28;19913;-51
2023/06/09 10:15:10;;;;;;;;;;;35.00;32.10;;;28.49;38.22;95075.69;5003720;28;19909;-49
2023/06/09 10:17:37;;;;;;;;;;;35.10;32.00;;;28.13;38.98;95076.41;5000986;28;20415;-49
2023/06/09 10:20:05;;;;;;;;;;;35.20;31.70;;;28.27;38.42;95067.44;5003835;28;19913;-51
2023/06/09 10:22:32;;;;;;;;;;;35.30;31.60;;;28.49;38.28;95079.22;4997992;28;19992;-52
2023/06/09 10:24:58;;;;;;;;;;;35.40;31.40;;;28.49;37.38;95072.94;5004376;28;19971;-53
2023/06/09 10:27:24;;;;;;;;;;;35.50;31.40;;;27.90;37.71;95071.31;5003553;28;19929;-47
2023/06/09 10:29:51;;;;;;;;;;;35.60;31.20;;;27.42;36.73;95071.56;5005145;28;19923;-50
2023/06/09 10:32:27;;;;;;;;;;;35.60;30.90;;;27.73;37.46;95073.97;5002957;28;19945;-50
2023/06/09 10:34:56;;;;;;;;;;;35.60;30.80;;;28.42;36.63;95079.19;5001255;28;19913;-47
2023/06/09 10:37:34;;;;;;;;;;;35.70;30.70;;;28.36;37.19;95069.78;4999132;28;20388;-47
2023/06/09 10:40:43;;;;;;;;;;;35.80;30.60;;;28.61;37.15;95072.53;5002636;28;19974;-47
2023/06/09 10:43:45;;;;;;;;;;;35.80;30.30;;;28.96;35.47;95068.19;5000851;28;20622;-51
2023/06/09 10:46:12;;;;;;;;;;;36.00;30.30;;;29.26;34.50;95065.75;4999054;28;19919;-50
2023/06/09 10:48:50;;;;;;;;;;;36.20;30.00;;;29.32;34.96;95074.34;4998766;28;19959;-53
2023/06/09 10:51:31;;;;;;;;;;;36.30;29.90;;;29.26;34.19;95065.75;5003411;28;19936;-47
2023/06/09 10:54:26;;;;;;;;;;;36.40;29.70;;;29.17;33.78;95065.38;5003066;28;20006;-49
2023/06/09 10:57:00;;;;;;;;;;;36.50;29.50;;;29.11;33.58;95072.44;4999795;28;20381;-50
2023/06/09 10:59:25;;;;;;;;;;;36.60;29.20;;;29.00;32.78;95058.75;5015548;28;20016;-51
2023/06/09 11:02:00;;;;;;;;;;;36.60;28.90;;;28.36;34.56;95054.16;5003246;28;20005;-52
2023/06/09 11:04:44;;;;;;;;;;;36.70;28.90;;;28.99;33.72;95053.69;5002805;28;20360;-53
2023/06/09 11:07:14;;;;;;;;;;;36.60;28.80;;;29.33;33.87;95050.44;5002679;28;20074;-49
2023/06/09 11:10:00;;;;;;;;;;;36.70;28.70;;;29.29;32.84;95053.97;4998207;28;19943;-52
2023/06/09 11:12:36;;;;;;;;;;;36.80;28.50;;;29.11;32.58;95056.00;5000623;28;19958;-51
2023/06/09 11:15:04;;;;;;;;;;;36.80;28.40;;;28.90;33.86;95048.63;4999040;28;20686;-49
2023/06/09 11:17:39;;;;;;;;;;;36.80;28.40;;;29.48;32.80;95040.97;4997959;28;19956;-49
2023/06/09 11:20:08;;;;;;;;;;;36.90;28.30;;;28.92;32.01;95046.25;5016389;28;19909;-49
2023/06/09 11:23:01;;;;;;;;;;;37.10;28.20;;;29.17;31.29;95045.41;4998707;28;19909;-51